sensor_id;sensor_type;location;lat;lon;timestamp;pressure;altitude;pressure_sealevel;temperature;humidity
48077;BME280;33854;57.708;12.008;2023-02-07T00:02:20;93784.41;;;1.51;100.00
48077;BME280;33854;57.708;12.008;2023-02-07T00:04:45;93695.34;;;1.52;100.00
48077;BME280;33854;57.708;12.008;2023-02-07T00:07:11;93666.72;;;1.55;100.00
48077;BME280;33854;57.708;12.008;2023-02-07T00:09:36;93546.06;;;1.55;100.00
48077;BME280;33854;57.708;12.008;2023-02-07T00:12:03;93562.06;;;1.57;100.00
48077;BME280;33854;57.708;12.008;2023-02-07T00:14:29;93535.38;;;1.58;100.00
48077;BME280;33854;57.708;12.008;2023-02-07T00:16:54;93371.47;;;1.61;100.00
48077;BME280;33854;57.708;12.008;2023-02-07T00:19:20;93321.88;;;1.61;100.00
48077;BME280;33854;57.708;12.008;2023-02-07T00:21:45;93234.41;;;1.62;100.00
48077;BME280;33854;57.708;12.008;2023-02-07T00:24:11;93109.97;;;1.65;100.00
48077;BME280;33854;57.708;12.008;2023-02-07T00:26:36;93084.28;;;1.65;100.00
48077;BME280;33854;57.708;12.008;2023-02-07T00:29:03;93186.22;;;1.64;100.00
48077;BME280;33854;57.708;12.008;2023-02-07T00:31:30;92995.41;;;1.70;100.00
48077;BME280;33854;57.708;12.008;2023-02-07T00:33:58;92906.81;;;1.55;100.00
48077;BME280;33854;57.708;12.008;2023-02-07T00:36:26;92909.28;;;1.68;100.00
48077;BME280;33854;57.708;12.008;2023-02-07T00:38:55;92972.09;;;1.72;100.00
48077;BME280;33854;57.708;12.008;2023-02-07T00:41:21;93077.16;;;1.73;100.00
48077;BME280;33854;57.708;12.008;2023-02-07T00:43:47;93080.13;;;1.70;100.00
48077;BME280;33854;57.708;12.008;2023-02-07T00:46:12;93095.34;;;1.72;100.00
48077;BME280;33854;57.708;12.008;2023-02-07T00:48:38;93193.69;;;1.72;100.00
48077;BME280;33854;57.708;12.008;2023-02-07T00:51:04;93166.84;;;1.75;100.00
48077;BME280;33854;57.708;12.008;2023-02-07T00:53:30;93188.97;;;1.76;100.00
48077;BME280;33854;57.708;12.008;2023-02-07T00:55:56;93074.59;;;1.73;100.00
48077;BME280;33854;57.708;12.008;2023-02-07T00:58:22;93045.16;;;1.76;100.00
48077;BME280;33854;57.708;12.008;2023-02-07T01:00:48;93100.84;;;1.76;100.00
48077;BME280;33854;57.708;12.008;2023-02-07T01:03:14;92979.97;;;1.77;100.00
48077;BME280;33854;57.708;12.008;2023-02-07T01:05:40;92922.91;;;1.75;100.00
48077;BME280;33854;57.708;12.008;2023-02-07T01:08:06;92957.66;;;1.78;100.00
48077;BME280;33854;57.708;12.008;2023-02-07T01:10:32;93000.50;;;1.77;100.00
48077;BME280;33854;57.708;12.008;2023-02-07T01:12:57;92900.34;;;1.77;100.00
48077;BME280;33854;57.708;12.008;2023-02-07T01:15:23;92797.41;;;1.79;100.00
48077;BME280;33854;57.708;12.008;2023-02-07T01:17:48;92708.56;;;1.78;100.00
48077;BME280;33854;57.708;12.008;2023-02-07T01:20:15;92773.97;;;1.75;100.00
48077;BME280;33854;57.708;12.008;2023-02-07T01:22:40;92711.88;;;1.78;100.00
48077;BME280;33854;57.708;12.008;2023-02-07T01:25:07;92798.63;;;1.76;100.00
48077;BME280;33854;57.708;12.008;2023-02-07T01:27:33;92677.94;;;1.76;100.00
48077;BME280;33854;57.708;12.008;2023-02-07T01:29:58;92664.69;;;1.79;100.00
48077;BME280;33854;57.708;12.008;2023-02-07T01:32:24;92627.16;;;1.78;100.00
48077;BME280;33854;57.708;12.008;2023-02-07T01:34:49;92603.13;;;1.72;100.00
48077;BME280;33854;57.708;12.008;2023-02-07T01:37:15;92673.81;;;1.75;100.00
48077;BME280;33854;57.708;12.008;2023-02-07T01:39:40;92734.44;;;1.76;100.00
48077;BME280;33854;57.708;12.008;2023-02-07T01:42:11;92790.34;;;1.74;100.00
48077;BME280;33854;57.708;12.008;2023-02-07T01:47:03;92802.63;;;1.72;100.00
48077;BME280;33854;57.708;12.008;2023-02-07T01:49:31;92845.06;;;1.75;100.00
48077;BME280;33854;57.708;12.008;2023-02-07T01:52:02;92828.09;;;1.73;100.00
48077;BME280;33854;57.708;12.008;2023-02-07T01:54:29;92949.16;;;1.77;100.00
48077;BME280;33854;57.708;12.008;2023-02-07T01:56:57;92918.19;;;1.65;100.00
48077;BME280;33854;57.708;12.008;2023-02-07T01:59:24;92977.59;;;1.76;100.00
48077;BME280;33854;57.708;12.008;2023-02-07T02:01:50;92979.97;;;1.77;100.00
48077;BME280;33854;57.708;12.008;2023-02-07T02:04:16;92953.91;;;1.73;100.00
48077;BME280;33854;57.708;12.008;2023-02-07T02:06:42;93006.84;;;1.75;100.00
48077;BME280;33854;57.708;12.008;2023-02-07T02:09:11;93023.06;;;1.75;100.00
48077;BME280;33854;57.708;12.008;2023-02-07T02:33:20;93290.13;;;1.75;100.00
48077;BME280;33854;57.708;12.008;2023-02-07T02:38:27;93403.88;;;1.76;100.00
48077;BME280;33854;57.708;12.008;2023-02-07T02:41:04;93407.84;;;1.71;100.00
48077;BME280;33854;57.708;12.008;2023-02-07T02:43:38;93426.38;;;1.67;100.00
48077;BME280;33854;57.708;12.008;2023-02-07T02:46:11;93513.16;;;1.78;100.00
48077;BME280;33854;57.708;12.008;2023-02-07T02:48:39;93528.56;;;1.78;100.00
48077;BME280;33854;57.708;12.008;2023-02-07T02:51:06;93550.09;;;1.77;100.00
48077;BME280;33854;57.708;12.008;2023-02-07T02:53:31;93620.03;;;1.79;100.00
48077;BME280;33854;57.708;12.008;2023-02-07T03:01:53;93669.22;;;1.76;100.00
48077;BME280;33854;57.708;12.008;2023-02-07T03:18:54;93855.38;;;1.80;100.00
48077;BME280;33854;57.708;12.008;2023-02-07T03:21:35;93849.44;;;1.80;100.00
48077;BME280;33854;57.708;12.008;2023-02-07T03:24:08;93861.50;;;1.79;100.00
48077;BME280;33854;57.708;12.008;2023-02-07T03:26:37;93897.81;;;1.76;100.00
48077;BME280;33854;57.708;12.008;2023-02-07T03:29:05;93925.72;;;1.79;100.00
48077;BME280;33854;57.708;12.008;2023-02-07T03:31:32;94004.53;;;1.79;100.00
48077;BME280;33854;57.708;12.008;2023-02-07T03:34:07;94035.19;;;1.80;100.00
48077;BME280;33854;57.708;12.008;2023-02-07T03:39:18;94105.97;;;1.83;100.00
48077;BME280;33854;57.708;12.008;2023-02-07T03:42:10;94102.59;;;1.82;100.00
48077;BME280;33854;57.708;12.008;2023-02-07T03:44:38;94139.38;;;1.83;100.00
48077;BME280;33854;57.708;12.008;2023-02-07T03:47:06;94180.47;;;1.83;100.00
48077;BME280;33854;57.708;12.008;2023-02-07T03:49:31;94235.38;;;1.82;100.00
48077;BME280;33854;57.708;12.008;2023-02-07T03:51:57;94271.19;;;1.83;100.00
48077;BME280;33854;57.708;12.008;2023-02-07T03:54:22;94325.16;;;1.83;100.00
48077;BME280;33854;57.708;12.008;2023-02-07T03:56:48;94348.41;;;1.82;100.00
48077;BME280;33854;57.708;12.008;2023-02-07T03:59:13;94342.13;;;1.84;100.00
48077;BME280;33854;57.708;12.008;2023-02-07T04:01:38;94353.06;;;1.86;100.00
48077;BME280;33854;57.708;12.008;2023-02-07T04:04:10;94377.16;;;1.85;100.00
48077;BME280;33854;57.708;12.008;2023-02-07T04:06:36;94408.78;;;1.86;100.00
48077;BME280;33854;57.708;12.008;2023-02-07T04:09:01;94453.25;;;1.86;100.00
48077;BME280;33854;57.708;12.008;2023-02-07T04:11:27;94472.84;;;1.87;100.00
48077;BME280;33854;57.708;12.008;2023-02-07T04:13:52;94514.94;;;1.86;100.00
48077;BME280;33854;57.708;12.008;2023-02-07T04:16:18;94541.41;;;1.87;100.00
48077;BME280;33854;57.708;12.008;2023-02-07T04:18:43;94556.47;;;1.90;100.00
48077;BME280;33854;57.708;12.008;2023-02-07T04:21:09;94598.41;;;1.90;100.00
48077;BME280;33854;57.708;12.008;2023-02-07T04:23:35;94643.06;;;1.89;100.00
48077;BME280;33854;57.708;12.008;2023-02-07T04:26:01;94636.78;;;1.92;100.00
48077;BME280;33854;57.708;12.008;2023-02-07T04:28:27;94663.31;;;1.92;100.00
48077;BME280;33854;57.708;12.008;2023-02-07T04:30:53;94708.91;;;1.90;100.00
48077;BME280;33854;57.708;12.008;2023-02-07T04:33:19;94750.66;;;1.92;100.00
48077;BME280;33854;57.708;12.008;2023-02-07T04:35:52;94795.31;;;1.91;100.00
48077;BME280;33854;57.708;12.008;2023-02-07T04:38:18;94803.03;;;1.91;100.00
48077;BME280;33854;57.708;12.008;2023-02-07T04:40:43;94857.00;;;1.91;100.00
48077;BME280;33854;57.708;12.008;2023-02-07T04:43:08;94868.53;;;1.87;100.00
48077;BME280;33854;57.708;12.008;2023-02-07T04:45:34;94874.03;;;1.92;100.00
48077;BME280;33854;57.708;12.008;2023-02-07T04:47:59;94905.81;;;1.91;100.00
48077;BME280;33854;57.708;12.008;2023-02-07T04:50:25;94906.28;;;1.87;100.00
48077;BME280;33854;57.708;12.008;2023-02-07T04:52:50;94975.19;;;1.91;100.00
48077;BME280;33854;57.708;12.008;2023-02-07T04:55:15;95022.25;;;1.92;100.00
48077;BME280;33854;57.708;12.008;2023-02-07T04:57:41;95044.41;;;1.93;100.00
48077;BME280;33854;57.708;12.008;2023-02-07T05:00:07;95076.72;;;1.95;100.00
48077;BME280;33854;57.708;12.008;2023-02-07T05:02:33;95057.25;;;1.93;100.00
48077;BME280;33854;57.708;12.008;2023-02-07T05:04:58;95105.78;;;1.96;100.00
48077;BME280;33854;57.708;12.008;2023-02-07T05:07:24;95118.00;;;1.94;100.00
48077;BME280;33854;57.708;12.008;2023-02-07T05:09:49;95096.63;;;1.93;100.00
48077;BME280;33854;57.708;12.008;2023-02-07T05:12:15;95155.09;;;1.91;100.00
48077;BME280;33854;57.708;12.008;2023-02-07T05:14:40;95184.66;;;1.95;100.00
48077;BME280;33854;57.708;12.008;2023-02-07T05:17:05;95187.09;;;1.97;100.00
48077;BME280;33854;57.708;12.008;2023-02-07T05:19:31;95184.00;;;1.93;100.00
48077;BME280;33854;57.708;12.008;2023-02-07T05:21:57;95286.38;;;1.98;100.00
48077;BME280;33854;57.708;12.008;2023-02-07T05:24:23;95285.06;;;1.94;100.00
48077;BME280;33854;57.708;12.008;2023-02-07T05:26:48;95315.72;;;1.95;100.00
48077;BME280;33854;57.708;12.008;2023-02-07T05:29:14;95300.47;;;1.94;100.00
48077;BME280;33854;57.708;12.008;2023-02-07T05:31:39;95321.03;;;1.94;100.00
48077;BME280;33854;57.708;12.008;2023-02-07T05:34:23;95292.75;;;1.94;100.00
48077;BME280;33854;57.708;12.008;2023-02-07T05:36:49;95340.13;;;1.91;100.00
48077;BME280;33854;57.708;12.008;2023-02-07T05:39:14;95340.78;;;1.93;100.00
48077;BME280;33854;57.708;12.008;2023-02-07T05:41:39;95380.44;;;1.91;100.00
48077;BME280;33854;57.708;12.008;2023-02-07T05:44:05;95432.50;;;1.93;100.00
48077;BME280;33854;57.708;12.008;2023-02-07T05:46:31;95469.28;;;1.93;100.00
48077;BME280;33854;57.708;12.008;2023-02-07T05:48:56;95453.06;;;1.93;100.00
48077;BME280;33854;57.708;12.008;2023-02-07T05:51:22;95469.28;;;1.93;100.00
48077;BME280;33854;57.708;12.008;2023-02-07T05:53:48;95523.16;;;1.95;100.00
48077;BME280;33854;57.708;12.008;2023-02-07T05:56:13;95552.50;;;1.92;100.00
48077;BME280;33854;57.708;12.008;2023-02-07T05:58:38;95553.47;;;1.91;100.00
48077;BME280;33854;57.708;12.008;2023-02-07T06:01:04;95556.03;;;1.91;100.00
48077;BME280;33854;57.708;12.008;2023-02-07T06:03:29;95582.66;;;1.90;100.00
48077;BME280;33854;57.708;12.008;2023-02-07T06:05:55;95595.25;;;1.93;100.00
48077;BME280;33854;57.708;12.008;2023-02-07T06:08:20;95627.34;;;1.89;100.00
48077;BME280;33854;57.708;12.008;2023-02-07T06:10:49;95661.69;;;1.88;100.00
48077;BME280;33854;57.708;12.008;2023-02-07T06:13:14;95669.25;;;1.90;100.00
48077;BME280;33854;57.708;12.008;2023-02-07T06:15:40;95729.19;;;1.90;100.00
48077;BME280;33854;57.708;12.008;2023-02-07T06:18:06;95776.53;;;1.88;100.00
48077;BME280;33854;57.708;12.008;2023-02-07T06:20:31;95811.69;;;1.87;100.00
48077;BME280;33854;57.708;12.008;2023-02-07T06:22:57;95870.69;;;1.89;100.00
48077;BME280;33854;57.708;12.008;2023-02-07T06:25:22;95891.53;;;1.86;100.00
48077;BME280;33854;57.708;12.008;2023-02-07T06:27:48;95923.03;;;1.88;100.00
48077;BME280;33854;57.708;12.008;2023-02-07T06:30:13;95973.88;;;1.84;100.00
48077;BME280;33854;57.708;12.008;2023-02-07T06:32:38;96014.75;;;1.87;100.00
48077;BME280;33854;57.708;12.008;2023-02-07T06:35:05;96044.78;;;1.87;100.00
48077;BME280;33854;57.708;12.008;2023-02-07T06:37:31;96093.50;;;1.88;100.00
48077;BME280;33854;57.708;12.008;2023-02-07T06:39:56;96129.06;;;1.83;100.00
48077;BME280;33854;57.708;12.008;2023-02-07T06:42:22;96179.25;;;1.87;100.00
48077;BME280;33854;57.708;12.008;2023-02-07T06:44:47;96227.28;;;1.87;100.00
48077;BME280;33854;57.708;12.008;2023-02-07T06:47:12;96254.25;;;1.92;100.00
48077;BME280;33854;57.708;12.008;2023-02-07T06:49:38;96272.50;;;1.89;100.00
48077;BME280;33854;57.708;12.008;2023-02-07T06:52:03;96309.53;;;1.87;100.00
48077;BME280;33854;57.708;12.008;2023-02-07T06:54:29;96292.81;;;1.92;100.00
48077;BME280;33854;57.708;12.008;2023-02-07T06:56:54;96316.75;;;1.93;100.00
48077;BME280;33854;57.708;12.008;2023-02-07T06:59:20;96389.44;;;1.95;100.00
48077;BME280;33854;57.708;12.008;2023-02-07T07:01:45;96450.44;;;1.93;100.00
48077;BME280;33854;57.708;12.008;2023-02-07T07:04:11;96452.22;;;1.81;100.00
48077;BME280;33854;57.708;12.008;2023-02-07T07:06:36;96495.53;;;1.97;100.00
48077;BME280;33854;57.708;12.008;2023-02-07T07:09:02;96542.44;;;1.89;100.00
48077;BME280;33854;57.708;12.008;2023-02-07T07:11:28;96579.47;;;1.98;100.00
48077;BME280;33854;57.708;12.008;2023-02-07T07:13:54;96665.81;;;2.00;100.00
48077;BME280;33854;57.708;12.008;2023-02-07T07:16:19;96701.22;;;1.97;100.00
48077;BME280;33854;57.708;12.008;2023-02-07T07:18:45;96758.41;;;2.00;100.00
48077;BME280;33854;57.708;12.008;2023-02-07T07:21:10;96777.09;;;2.02;100.00
48077;BME280;33854;57.708;12.008;2023-02-07T07:23:36;96790.19;;;1.99;100.00
48077;BME280;33854;57.708;12.008;2023-02-07T07:26:02;96796.63;;;2.05;100.00
48077;BME280;33854;57.708;12.008;2023-02-07T07:28:28;96809.47;;;2.05;100.00
48077;BME280;33854;57.708;12.008;2023-02-07T07:30:53;96836.84;;;2.06;100.00
48077;BME280;33854;57.708;12.008;2023-02-07T07:33:18;96888.28;;;2.06;100.00
48077;BME280;33854;57.708;12.008;2023-02-07T07:35:44;96921.50;;;2.09;100.00
48077;BME280;33854;57.708;12.008;2023-02-07T07:38:09;96933.53;;;2.08;100.00
48077;BME280;33854;57.708;12.008;2023-02-07T07:40:35;96976.19;;;2.11;100.00
48077;BME280;33854;57.708;12.008;2023-02-07T07:43:00;96990.81;;;2.10;100.00
48077;BME280;33854;57.708;12.008;2023-02-07T07:45:26;97013.94;;;2.10;100.00
48077;BME280;33854;57.708;12.008;2023-02-07T07:47:51;97046.56;;;2.10;100.00
48077;BME280;33854;57.708;12.008;2023-02-07T07:50:17;97050.34;;;2.17;100.00
48077;BME280;33854;57.708;12.008;2023-02-07T07:52:42;97059.72;;;2.18;100.00
48077;BME280;33854;57.708;12.008;2023-02-07T07:55:08;97080.09;;;2.21;100.00
48077;BME280;33854;57.708;12.008;2023-02-07T07:57:34;97094.38;;;2.25;100.00
48077;BME280;33854;57.708;12.008;2023-02-07T08:00:00;97108.97;;;2.24;100.00
48077;BME280;33854;57.708;12.008;2023-02-07T08:02:26;97117.53;;;2.25;100.00
48077;BME280;33854;57.708;12.008;2023-02-07T08:04:52;97115.78;;;2.25;100.00
48077;BME280;33854;57.708;12.008;2023-02-07T08:07:17;97142.94;;;2.29;100.00
48077;BME280;33854;57.708;12.008;2023-02-07T08:09:43;97133.44;;;2.30;100.00
48077;BME280;33854;57.708;12.008;2023-02-07T08:12:09;97146.00;;;2.35;100.00
48077;BME280;33854;57.708;12.008;2023-02-07T08:14:34;97146.63;;;2.38;100.00
48077;BME280;33854;57.708;12.008;2023-02-07T08:17:00;97139.63;;;2.40;100.00
48077;BME280;33854;57.708;12.008;2023-02-07T08:19:25;97160.91;;;2.42;100.00
48077;BME280;33854;57.708;12.008;2023-02-07T08:21:51;97159.25;;;2.41;100.00
48077;BME280;33854;57.708;12.008;2023-02-07T08:24:16;97172.75;;;2.45;100.00
48077;BME280;33854;57.708;12.008;2023-02-07T08:26:42;97178.63;;;2.47;100.00
48077;BME280;33854;57.708;12.008;2023-02-07T08:29:08;97201.03;;;2.45;100.00
48077;BME280;33854;57.708;12.008;2023-02-07T08:31:33;97206.31;;;2.43;100.00
48077;BME280;33854;57.708;12.008;2023-02-07T08:33:59;97224.94;;;2.47;100.00
48077;BME280;33854;57.708;12.008;2023-02-07T08:36:24;97228.53;;;2.44;100.00
48077;BME280;33854;57.708;12.008;2023-02-07T08:38:50;97212.78;;;2.49;100.00
48077;BME280;33854;57.708;12.008;2023-02-07T08:41:16;97222.78;;;2.41;100.00
48077;BME280;33854;57.708;12.008;2023-02-07T08:43:42;97249.03;;;2.46;100.00
48077;BME280;33854;57.708;12.008;2023-02-07T08:46:07;97251.38;;;2.49;100.00
48077;BME280;33854;57.708;12.008;2023-02-07T08:48:32;97241.31;;;2.46;100.00
48077;BME280;33854;57.708;12.008;2023-02-07T08:51:06;97237.28;;;2.42;100.00
48077;BME280;33854;57.708;12.008;2023-02-07T08:53:32;97234.31;;;2.35;100.00
48077;BME280;33854;57.708;12.008;2023-02-07T08:55:57;97236.38;;;2.30;100.00
48077;BME280;33854;57.708;12.008;2023-02-07T08:58:23;97248.31;;;2.44;100.00
48077;BME280;33854;57.708;12.008;2023-02-07T09:00:50;97260.66;;;2.39;100.00
48077;BME280;33854;57.708;12.008;2023-02-07T09:03:15;97256.25;;;2.41;100.00
48077;BME280;33854;57.708;12.008;2023-02-07T09:05:40;97272.47;;;2.41;100.00
48077;BME280;33854;57.708;12.008;2023-02-07T09:08:06;97262.81;;;2.45;100.00
48077;BME280;33854;57.708;12.008;2023-02-07T09:10:31;97269.81;;;2.43;100.00
48077;BME280;33854;57.708;12.008;2023-02-07T09:12:57;97255.81;;;2.34;100.00
48077;BME280;33854;57.708;12.008;2023-02-07T09:15:23;97261.88;;;2.46;100.00
48077;BME280;33854;57.708;12.008;2023-02-07T09:17:48;97279.06;;;2.45;100.00
48077;BME280;33854;57.708;12.008;2023-02-07T09:20:13;97268.16;;;2.42;100.00
48077;BME280;33854;57.708;12.008;2023-02-07T09:22:39;97268.06;;;2.43;100.00
48077;BME280;33854;57.708;12.008;2023-02-07T09:25:23;97224.94;;;2.34;100.00
48077;BME280;33854;57.708;12.008;2023-02-07T09:27:49;97279.19;;;2.44;100.00
48077;BME280;33854;57.708;12.008;2023-02-07T09:30:15;97282.56;;;2.44;100.00
48077;BME280;33854;57.708;12.008;2023-02-07T09:32:40;97276.72;;;2.42;100.00
48077;BME280;33854;57.708;12.008;2023-02-07T09:35:06;97284.22;;;2.45;100.00
48077;BME280;33854;57.708;12.008;2023-02-07T09:37:33;97284.56;;;2.41;100.00
48077;BME280;33854;57.708;12.008;2023-02-07T09:39:59;97291.03;;;2.46;100.00
48077;BME280;33854;57.708;12.008;2023-02-07T09:42:34;97279.00;;;2.47;100.00
48077;BME280;33854;57.708;12.008;2023-02-07T09:45:07;97279.91;;;2.46;100.00
48077;BME280;33854;57.708;12.008;2023-02-07T09:47:37;97278.44;;;2.42;100.00
48077;BME280;33854;57.708;12.008;2023-02-07T09:50:15;97293.06;;;2.41;100.00
48077;BME280;33854;57.708;12.008;2023-02-07T09:52:48;97305.84;;;2.43;100.00
48077;BME280;33854;57.708;12.008;2023-02-07T09:55:21;97292.97;;;2.43;100.00
48077;BME280;33854;57.708;12.008;2023-02-07T09:57:51;97294.00;;;2.40;100.00
48077;BME280;33854;57.708;12.008;2023-02-07T10:00:30;97285.25;;;2.43;100.00
48077;BME280;33854;57.708;12.008;2023-02-07T10:03:04;97296.19;;;2.46;100.00
48077;BME280;33854;57.708;12.008;2023-02-07T10:06:06;97271.97;;;2.49;100.00
48077;BME280;33854;57.708;12.008;2023-02-07T10:08:34;97283.81;;;2.51;100.00
48077;BME280;33854;57.708;12.008;2023-02-07T10:11:16;97282.34;;;2.47;100.00
48077;BME280;33854;57.708;12.008;2023-02-07T10:21:40;97304.59;;;2.48;100.00
48077;BME280;33854;57.708;12.008;2023-02-07T10:27:09;97307.31;;;2.47;100.00
48077;BME280;33854;57.708;12.008;2023-02-07T10:32:35;97294.72;;;2.55;100.00
48077;BME280;33854;57.708;12.008;2023-02-07T10:35:13;97270.53;;;2.57;100.00
48077;BME280;33854;57.708;12.008;2023-02-07T10:37:42;97300.25;;;2.61;100.00
48077;BME280;33854;57.708;12.008;2023-02-07T10:42:47;97309.75;;;2.61;100.00
48077;BME280;33854;57.708;12.008;2023-02-07T10:45:14;97309.13;;;2.57;100.00
48077;BME280;33854;57.708;12.008;2023-02-07T10:47:40;97306.16;;;2.63;100.00
48077;BME280;33854;57.708;12.008;2023-02-07T10:50:10;97309.44;;;2.65;100.00
48077;BME280;33854;57.708;12.008;2023-02-07T10:52:49;97301.72;;;2.65;100.00
48077;BME280;33854;57.708;12.008;2023-02-07T10:55:19;97304.28;;;2.65;100.00
48077;BME280;33854;57.708;12.008;2023-02-07T10:57:58;97268.16;;;2.67;100.00
48077;BME280;33854;57.708;12.008;2023-02-07T11:00:29;97239.50;;;2.71;100.00
48077;BME280;33854;57.708;12.008;2023-02-07T11:03:05;97258.16;;;2.75;100.00
48077;BME280;33854;57.708;12.008;2023-02-07T11:05:37;97286.13;;;2.79;100.00
48077;BME280;33854;57.708;12.008;2023-02-07T11:10:42;97301.69;;;2.78;100.00
48077;BME280;33854;57.708;12.008;2023-02-07T11:13:14;97305.00;;;2.80;100.00
48077;BME280;33854;57.708;12.008;2023-02-07T11:15:51;97296.94;;;2.84;100.00
48077;BME280;33854;57.708;12.008;2023-02-07T11:18:32;97300.34;;;2.85;100.00
48077;BME280;33854;57.708;12.008;2023-02-07T11:21:03;97276.25;;;2.86;100.00
48077;BME280;33854;57.708;12.008;2023-02-07T11:23:28;97318.88;;;2.90;100.00
48077;BME280;33854;57.708;12.008;2023-02-07T11:25:55;97327.31;;;2.92;100.00
48077;BME280;33854;57.708;12.008;2023-02-07T11:28:25;97326.91;;;2.98;100.00
48077;BME280;33854;57.708;12.008;2023-02-07T11:30:57;97229.34;;;2.94;100.00
48077;BME280;33854;57.708;12.008;2023-02-07T11:33:28;97160.78;;;3.04;100.00
48077;BME280;33854;57.708;12.008;2023-02-07T11:36:11;97147.91;;;3.04;100.00
48077;BME280;33854;57.708;12.008;2023-02-07T11:38:46;97181.28;;;3.05;100.00
48077;BME280;33854;57.708;12.008;2023-02-07T11:41:22;97186.00;;;3.11;100.00
48077;BME280;33854;57.708;12.008;2023-02-07T11:44:15;97213.19;;;3.15;100.00
48077;BME280;33854;57.708;12.008;2023-02-07T11:46:45;97226.38;;;3.11;100.00
48077;BME280;33854;57.708;12.008;2023-02-07T11:51:58;97263.25;;;3.24;100.00
48077;BME280;33854;57.708;12.008;2023-02-07T11:54:24;97316.38;;;3.37;100.00
48077;BME280;33854;57.708;12.008;2023-02-07T11:56:53;97303.97;;;3.42;100.00
48077;BME280;33854;57.708;12.008;2023-02-07T11:59:26;97288.50;;;3.66;100.00
48077;BME280;33854;57.708;12.008;2023-02-07T12:01:59;97307.88;;;3.72;100.00
48077;BME280;33854;57.708;12.008;2023-02-07T12:04:33;97312.00;;;3.85;100.00
48077;BME280;33854;57.708;12.008;2023-02-07T12:07:07;97307.47;;;3.89;100.00
48077;BME280;33854;57.708;12.008;2023-02-07T12:09:46;97334.16;;;3.77;100.00
48077;BME280;33854;57.708;12.008;2023-02-07T12:15:12;97406.47;;;3.75;100.00
48077;BME280;33854;57.708;12.008;2023-02-07T12:17:50;97484.28;;;3.69;100.00
48077;BME280;33854;57.708;12.008;2023-02-07T12:20:29;97515.94;;;3.71;100.00
48077;BME280;33854;57.708;12.008;2023-02-07T12:22:59;97552.44;;;3.65;100.00
48077;BME280;33854;57.708;12.008;2023-02-07T12:25:35;97569.28;;;3.58;100.00
48077;BME280;33854;57.708;12.008;2023-02-07T12:28:52;97580.22;;;3.49;100.00
48077;BME280;33854;57.708;12.008;2023-02-07T12:30:54;97609.50;;;3.61;100.00
48077;BME280;33854;57.708;12.008;2023-02-07T12:34:07;97642.91;;;3.62;100.00
48077;BME280;33854;57.708;12.008;2023-02-07T12:36:33;97664.78;;;3.57;100.00
48077;BME280;33854;57.708;12.008;2023-02-07T12:39:18;97674.38;;;3.55;100.00
48077;BME280;33854;57.708;12.008;2023-02-07T12:41:58;97703.44;;;3.57;100.00
48077;BME280;33854;57.708;12.008;2023-02-07T12:44:33;97718.84;;;3.58;100.00
48077;BME280;33854;57.708;12.008;2023-02-07T12:47:06;97745.09;;;3.51;100.00
48077;BME280;33854;57.708;12.008;2023-02-07T12:58:17;97761.81;;;3.97;100.00
48077;BME280;33854;57.708;12.008;2023-02-07T13:06:36;97845.03;;;4.13;100.00
48077;BME280;33854;57.708;12.008;2023-02-07T13:09:06;97850.44;;;4.35;100.00
48077;BME280;33854;57.708;12.008;2023-02-07T13:11:53;97917.63;;;4.21;100.00
48077;BME280;33854;57.708;12.008;2023-02-07T13:22:39;98061.66;;;4.02;100.00
48077;BME280;33854;57.708;12.008;2023-02-07T13:25:15;98113.19;;;3.89;100.00
48077;BME280;33854;57.708;12.008;2023-02-07T13:27:43;98141.75;;;3.86;100.00
48077;BME280;33854;57.708;12.008;2023-02-07T13:30:15;98154.72;;;3.85;100.00
48077;BME280;33854;57.708;12.008;2023-02-07T13:32:42;98165.47;;;3.93;100.00
48077;BME280;33854;57.708;12.008;2023-02-07T13:35:20;98155.13;;;4.21;100.00
48077;BME280;33854;57.708;12.008;2023-02-07T13:43:12;98260.84;;;4.23;100.00
48077;BME280;33854;57.708;12.008;2023-02-07T13:50:53;98429.97;;;3.69;100.00
48077;BME280;33854;57.708;12.008;2023-02-07T13:55:54;98498.50;;;3.41;100.00
48077;BME280;33854;57.708;12.008;2023-02-07T14:01:22;98540.56;;;3.26;100.00
48077;BME280;33854;57.708;12.008;2023-02-07T14:04:04;98553.16;;;3.15;100.00
48077;BME280;33854;57.708;12.008;2023-02-07T14:09:19;98561.88;;;3.13;100.00
48077;BME280;33854;57.708;12.008;2023-02-07T14:11:48;98567.25;;;3.08;100.00
48077;BME280;33854;57.708;12.008;2023-02-07T14:14:17;98568.09;;;3.09;100.00
48077;BME280;33854;57.708;12.008;2023-02-07T14:17:09;98572.50;;;3.07;100.00
48077;BME280;33854;57.708;12.008;2023-02-07T14:27:32;98605.97;;;2.90;100.00
48077;BME280;33854;57.708;12.008;2023-02-07T14:36:02;98573.44;;;2.87;100.00
48077;BME280;33854;57.708;12.008;2023-02-07T14:41:09;98559.81;;;2.85;100.00
48077;BME280;33854;57.708;12.008;2023-02-07T14:46:30;98550.81;;;2.76;100.00
48077;BME280;33854;57.708;12.008;2023-02-07T14:51:57;98528.47;;;2.77;100.00
48077;BME280;33854;57.708;12.008;2023-02-07T15:03:09;98544.97;;;2.73;100.00
48077;BME280;33854;57.708;12.008;2023-02-07T15:05:34;98532.03;;;2.74;100.00
48077;BME280;33854;57.708;12.008;2023-02-07T15:10:29;98535.50;;;2.73;100.00
48077;BME280;33854;57.708;12.008;2023-02-07T15:12:55;98533.00;;;2.72;100.00
48077;BME280;33854;57.708;12.008;2023-02-07T15:15:24;98520.88;;;2.74;100.00
48077;BME280;33854;57.708;12.008;2023-02-07T15:17:51;98506.47;;;2.70;100.00
48077;BME280;33854;57.708;12.008;2023-02-07T15:20:22;98505.44;;;2.74;100.00
48077;BME280;33854;57.708;12.008;2023-02-07T15:22:52;98484.06;;;2.72;100.00
48077;BME280;33854;57.708;12.008;2023-02-07T15:25:18;98469.47;;;2.72;100.00
48077;BME280;33854;57.708;12.008;2023-02-07T15:28:02;98462.47;;;2.74;100.00